createdAt,value
2022-09-16T00:00:54.200Z,14.18
2022-09-16T00:03:23.949Z,14.16
2022-09-16T00:05:55.778Z,14.12
2022-09-16T00:08:28.114Z,14.09
2022-09-16T00:11:02.660Z,14.05
2022-09-16T00:13:32.568Z,14.03
2022-09-16T00:16:02.446Z,14.03
2022-09-16T00:18:32.177Z,14.02
2022-09-16T00:21:01.924Z,14.02
2022-09-16T00:23:34.211Z,14.04
2022-09-16T00:26:04.063Z,14.02
2022-09-16T00:28:34.291Z,14.00
2022-09-16T00:31:04.954Z,14.03
2022-09-16T00:33:34.856Z,14.03
2022-09-16T00:36:09.271Z,14.03
2022-09-16T00:38:41.913Z,14.01
2022-09-16T00:41:17.312Z,13.99
2022-09-16T00:43:55.930Z,13.99
2022-09-16T00:46:31.998Z,13.98
2022-09-16T00:49:05.937Z,13.98
2022-09-16T00:51:36.459Z,14.01
2022-09-16T00:54:10.712Z,14.02
2022-09-16T00:56:43.140Z,14.01
2022-09-16T00:59:17.847Z,13.97
2022-09-16T01:01:49.593Z,13.97
2022-09-16T01:04:24.506Z,13.98
2022-09-16T01:06:54.539Z,13.96
2022-09-16T01:09:29.531Z,13.94
2022-09-16T01:11:59.411Z,13.93
2022-09-16T01:14:43.355Z,13.92
2022-09-16T01:17:20.617Z,13.94
2022-09-16T01:20:13.683Z,13.96
2022-09-16T01:22:57.289Z,13.98
2022-09-16T01:25:48.251Z,14.03
2022-09-16T01:28:37.170Z,14.07
2022-09-16T01:31:18.711Z,14.11
2022-09-16T01:33:59.261Z,14.14
2022-09-16T01:36:42.822Z,14.18
2022-09-16T01:39:30.006Z,14.22
2022-09-16T01:42:11.857Z,14.23
2022-09-16T01:44:49.941Z,14.25
2022-09-16T01:47:28.738Z,14.25
2022-09-16T01:50:04.430Z,14.17
2022-09-16T01:52:44.359Z,14.14
2022-09-16T01:55:21.297Z,14.11
2022-09-16T01:57:56.301Z,14.10
2022-09-16T02:00:26.352Z,14.10
2022-09-16T02:03:04.233Z,14.13
2022-09-16T02:05:37.382Z,14.15
2022-09-16T02:08:12.797Z,14.17
2022-09-16T02:10:46.361Z,14.16
2022-09-16T02:13:19.981Z,14.15
2022-09-16T02:15:52.677Z,14.16
2022-09-16T02:18:31.153Z,14.20
2022-09-16T02:21:03.802Z,14.21
2022-09-16T02:23:39.962Z,14.20
2022-09-16T02:26:13.664Z,14.13
2022-09-16T02:28:46.997Z,14.03
2022-09-16T02:31:18.473Z,13.89
2022-09-16T02:33:55.387Z,13.74
2022-09-16T02:36:28.689Z,13.61
2022-09-16T02:39:04.786Z,13.48
2022-09-16T02:41:34.601Z,13.41
2022-09-16T02:44:05.077Z,13.37
2022-09-16T02:46:42.290Z,13.35
2022-09-16T02:49:20.111Z,13.35
2022-09-16T02:51:59.485Z,13.36
2022-09-16T02:54:39.547Z,13.37
2022-09-16T02:57:10.007Z,13.38
2022-09-16T02:59:40.749Z,13.39
2022-09-16T03:02:10.671Z,13.39
2022-09-16T03:04:43.046Z,13.44
2022-09-16T03:07:14.405Z,13.42
2022-09-16T03:09:47.324Z,13.42
2022-09-16T03:12:49.700Z,13.45
2022-09-16T03:15:36.121Z,13.44
2022-09-16T03:18:25.584Z,13.45
2022-09-16T03:21:03.040Z,13.45
2022-09-16T03:23:47.442Z,13.48
2022-09-16T03:26:25.467Z,13.49
2022-09-16T03:29:07.454Z,13.49
2022-09-16T03:31:46.726Z,13.50
2022-09-16T03:34:20.386Z,13.53
2022-09-16T03:36:57.326Z,13.52
2022-09-16T03:39:27.654Z,13.51
2022-09-16T03:41:58.317Z,13.53
2022-09-16T03:44:34.745Z,13.54
2022-09-16T03:47:04.741Z,13.51
2022-09-16T03:49:34.487Z,13.53
2022-09-16T03:52:07.938Z,13.58
2022-09-16T03:54:37.937Z,13.60
2022-09-16T03:57:08.347Z,13.63
2022-09-16T03:59:38.048Z,13.67
2022-09-16T04:02:08.092Z,13.68
2022-09-16T04:04:37.774Z,13.68
2022-09-16T04:07:10.108Z,13.67
2022-09-16T04:09:40.141Z,13.64
2022-09-16T04:12:09.968Z,13.62
2022-09-16T04:14:40.109Z,13.60
2022-09-16T04:17:09.853Z,13.59
2022-09-16T04:19:39.546Z,13.57
2022-09-16T04:22:11.892Z,13.58
2022-09-16T04:24:41.717Z,13.60
2022-09-16T04:27:11.445Z,13.61
2022-09-16T04:29:41.153Z,13.63
2022-09-16T04:32:10.888Z,13.66
2022-09-16T04:34:40.688Z,13.68
2022-09-16T04:37:12.953Z,13.71
2022-09-16T04:39:42.657Z,13.70
2022-09-16T04:42:12.733Z,13.67
2022-09-16T04:44:42.448Z,13.67
2022-09-16T04:47:12.138Z,13.66
2022-09-16T04:49:41.854Z,13.66
2022-09-16T04:52:14.140Z,13.68
2022-09-16T04:54:43.841Z,13.66
2022-09-16T04:57:13.562Z,13.66
2022-09-16T04:59:43.261Z,13.65
2022-09-16T05:02:12.937Z,13.65
2022-09-16T05:04:42.626Z,13.64
2022-09-16T05:07:14.909Z,13.64
2022-09-16T05:09:44.793Z,13.62
2022-09-16T05:12:14.471Z,13.61
2022-09-16T05:14:44.172Z,13.61
2022-09-16T05:17:23.129Z,13.61
2022-09-16T05:20:03.999Z,13.63
2022-09-16T05:22:36.288Z,13.66
2022-09-16T05:25:06.476Z,13.68
2022-09-16T05:27:36.696Z,13.69
2022-09-16T05:30:06.924Z,13.70
2022-09-16T05:32:36.591Z,13.68
2022-09-16T05:35:06.308Z,13.69
2022-09-16T05:37:38.631Z,13.70
2022-09-16T05:40:10.142Z,13.72
2022-09-16T05:42:39.882Z,13.73
2022-09-16T05:45:11.130Z,13.73
2022-09-16T05:47:40.826Z,13.74
2022-09-16T05:50:11.585Z,13.76
2022-09-16T05:52:43.944Z,13.78
2022-09-16T05:55:13.711Z,13.78
2022-09-16T05:57:43.443Z,13.79
2022-09-16T06:00:14.918Z,13.81
2022-09-16T06:02:44.750Z,13.81
2022-09-16T06:05:14.489Z,13.83
2022-09-16T06:07:46.826Z,13.83
2022-09-16T06:10:16.762Z,13.84
2022-09-16T06:12:46.926Z,13.88
2022-09-16T06:15:16.809Z,13.92
2022-09-16T06:17:46.510Z,13.98
2022-09-16T06:20:16.350Z,14.01
2022-09-16T06:22:48.700Z,14.04
2022-09-16T06:25:18.672Z,14.04
2022-09-16T06:27:48.469Z,14.05
2022-09-16T06:30:18.222Z,14.06
2022-09-16T06:32:47.964Z,14.11
2022-09-16T06:35:17.760Z,14.15
2022-09-16T06:37:50.084Z,14.18
2022-09-16T06:40:20.230Z,14.25
2022-09-16T06:42:50.737Z,14.33
2022-09-16T06:45:20.447Z,14.40
2022-09-16T06:47:50.217Z,14.50
2022-09-16T06:50:20.173Z,14.58
2022-09-16T06:52:55.964Z,14.60
2022-09-16T06:55:25.680Z,14.63
2022-09-16T06:57:55.421Z,14.67
2022-09-16T07:00:25.328Z,14.69
2022-09-16T07:02:55.539Z,14.72
2022-09-16T07:05:25.508Z,14.75
2022-09-16T07:07:58.025Z,14.76
2022-09-16T07:10:27.776Z,14.79
2022-09-16T07:12:57.567Z,14.79
2022-09-16T07:15:27.363Z,14.81
2022-09-16T07:17:57.989Z,14.75
2022-09-16T07:20:27.779Z,14.66
2022-09-16T07:23:01.665Z,14.55
2022-09-16T07:25:35.698Z,14.47
2022-09-16T07:28:06.726Z,14.40
2022-09-16T07:30:36.728Z,14.31
2022-09-16T07:33:06.682Z,14.21
2022-09-16T07:35:36.372Z,14.21
2022-09-16T07:38:08.677Z,14.27
2022-09-16T07:40:40.885Z,14.40
2022-09-16T07:43:10.661Z,14.55
2022-09-16T07:45:40.413Z,14.70
2022-09-16T07:48:10.337Z,14.84
2022-09-16T07:50:40.068Z,14.98
2022-09-16T07:53:12.400Z,15.13
2022-09-16T07:55:42.113Z,15.29
2022-09-16T07:58:11.786Z,15.45
2022-09-16T08:00:41.594Z,15.58
2022-09-16T08:03:11.389Z,15.74
2022-09-16T08:05:41.211Z,15.88
2022-09-16T08:08:13.565Z,16.05
2022-09-16T08:10:43.449Z,16.19
2022-09-16T08:13:13.683Z,16.32
2022-09-16T08:15:43.473Z,16.46
2022-09-16T08:18:13.317Z,16.59
2022-09-16T08:20:43.020Z,16.73
2022-09-16T08:23:15.523Z,16.85
2022-09-16T08:25:45.613Z,16.92
2022-09-16T08:28:16.782Z,16.98
2022-09-16T08:30:51.279Z,16.95
2022-09-16T08:33:26.010Z,16.85
2022-09-16T08:36:01.727Z,16.78
2022-09-16T08:38:34.697Z,16.80
2022-09-16T08:41:10.587Z,16.86
2022-09-16T08:43:47.513Z,16.92
2022-09-16T08:46:23.423Z,17.04
2022-09-16T08:48:58.416Z,17.13
2022-09-16T08:51:29.108Z,17.12
2022-09-16T08:54:05.186Z,17.06
2022-09-16T08:56:40.395Z,17.03
2022-09-16T08:59:20.654Z,17.00
2022-09-16T09:01:54.519Z,17.01
2022-09-16T09:04:24.508Z,17.07
2022-09-16T09:07:05.201Z,17.15
2022-09-16T09:09:53.188Z,17.13
2022-09-16T09:12:34.060Z,17.07
2022-09-16T09:15:30.611Z,16.98
2022-09-16T09:18:15.827Z,16.87
2022-09-16T09:20:55.428Z,16.85
2022-09-16T09:23:40.114Z,16.94
2022-09-16T09:26:21.991Z,16.95
2022-09-16T09:29:22.287Z,17.04
2022-09-16T09:32:00.202Z,17.09
2022-09-16T09:34:47.311Z,17.02
2022-09-16T09:37:32.440Z,16.85
2022-09-16T09:40:12.336Z,16.66
2022-09-16T09:42:50.982Z,16.56
2022-09-16T09:45:30.342Z,16.48
2022-09-16T09:48:05.335Z,16.43
2022-09-16T09:50:43.527Z,16.44
2022-09-16T09:53:20.668Z,16.49
2022-09-16T09:55:50.910Z,16.55
2022-09-16T09:58:29.708Z,16.66
2022-09-16T10:00:59.476Z,16.74
2022-09-16T10:03:31.145Z,16.79
2022-09-16T10:06:00.935Z,16.80
2022-09-16T10:08:36.047Z,16.79
2022-09-16T10:11:17.615Z,16.78
2022-09-16T10:13:55.657Z,16.79
2022-09-16T10:16:30.005Z,16.81
2022-09-16T10:19:04.467Z,16.88
2022-09-16T10:21:46.264Z,17.00
2022-09-16T10:24:33.581Z,17.11
2022-09-16T10:27:05.648Z,17.14
2022-09-16T10:29:37.976Z,17.21
2022-09-16T10:32:12.460Z,17.27
2022-09-16T10:34:44.960Z,17.30
2022-09-16T10:37:20.213Z,17.35
2022-09-16T10:39:55.868Z,17.38
2022-09-16T10:42:27.432Z,17.37
2022-09-16T10:45:06.184Z,17.39
2022-09-16T10:47:37.608Z,17.40
2022-09-16T10:50:08.992Z,17.30
2022-09-16T10:52:45.467Z,17.04
2022-09-16T10:55:25.553Z,16.80
2022-09-16T10:57:55.786Z,16.63
2022-09-16T11:00:36.296Z,16.49
2022-09-16T11:03:38.862Z,16.41
2022-09-16T11:06:21.160Z,16.42
2022-09-16T11:09:03.073Z,16.36
2022-09-16T11:11:47.347Z,16.32
2022-09-16T11:14:27.829Z,16.32
2022-09-16T11:17:12.546Z,16.38
2022-09-16T11:19:54.837Z,16.48
2022-09-16T11:22:33.211Z,16.57
2022-09-16T11:25:26.186Z,16.64
2022-09-16T11:28:07.837Z,16.70
2022-09-16T11:30:42.910Z,16.78
2022-09-16T11:33:30.543Z,16.82
2022-09-16T11:36:17.183Z,16.82
2022-09-16T11:38:57.686Z,16.82
2022-09-16T11:41:34.307Z,16.83
2022-09-16T11:44:29.831Z,16.83
2022-09-16T11:47:13.041Z,16.80
2022-09-16T11:50:09.114Z,16.78
2022-09-16T11:53:04.230Z,16.77
2022-09-16T11:55:49.880Z,16.78
2022-09-16T11:58:31.707Z,16.81
2022-09-16T12:01:05.483Z,16.82
2022-09-16T12:03:44.441Z,16.85
2022-09-16T12:06:20.133Z,16.85
2022-09-16T12:09:01.965Z,16.87
2022-09-16T12:11:36.813Z,16.88
2022-09-16T12:14:16.048Z,16.87
2022-09-16T12:16:50.795Z,16.89
2022-09-16T12:19:25.419Z,16.84
2022-09-16T12:22:04.361Z,16.79
2022-09-16T12:24:40.409Z,16.70
2022-09-16T12:27:34.306Z,16.65
2022-09-16T12:30:07.415Z,16.59
2022-09-16T12:32:45.973Z,16.59
2022-09-16T12:35:19.700Z,16.60
2022-09-16T12:37:54.617Z,16.60
2022-09-16T12:40:28.275Z,16.60
2022-09-16T12:43:28.856Z,16.62
2022-09-16T12:46:11.001Z,16.57
2022-09-16T12:49:06.724Z,16.58
2022-09-16T12:52:04.358Z,16.48
2022-09-16T12:55:08.627Z,16.21
2022-09-16T12:57:54.463Z,15.90
2022-09-16T13:00:26.187Z,15.68
2022-09-16T13:02:59.405Z,15.52
2022-09-16T13:05:33.545Z,15.38
2022-09-16T13:08:07.837Z,15.26
2022-09-16T13:11:25.507Z,15.19
2022-09-16T13:13:37.116Z,15.07
2022-09-16T13:16:10.184Z,14.90
2022-09-16T13:18:45.979Z,14.79
2022-09-16T13:21:25.785Z,14.75
2022-09-16T13:24:04.363Z,14.69
2022-09-16T13:26:48.512Z,14.64
2022-09-16T13:29:30.354Z,14.63
2022-09-16T13:32:00.287Z,14.60
2022-09-16T13:34:30.308Z,14.61
2022-09-16T13:37:00.586Z,14.62
2022-09-16T13:39:35.337Z,14.67
2022-09-16T13:42:24.950Z,14.68
2022-09-16T13:44:55.036Z,14.68
2022-09-16T13:47:40.365Z,14.73
2022-09-16T13:50:17.171Z,14.82
2022-09-16T13:52:47.089Z,14.88
2022-09-16T13:55:23.966Z,14.89
2022-09-16T13:58:03.550Z,14.91
2022-09-16T14:00:39.216Z,14.92
2022-09-16T14:03:34.510Z,14.94
2022-09-16T14:06:31.018Z,14.95
2022-09-16T14:09:07.340Z,14.99
2022-09-16T14:11:47.107Z,15.00
2022-09-16T14:14:46.318Z,14.98
2022-09-16T14:17:20.072Z,14.95
2022-09-16T14:19:51.942Z,14.90
2022-09-16T14:22:26.899Z,14.86
2022-09-16T14:25:06.231Z,14.86
2022-09-16T14:27:44.185Z,14.85
2022-09-16T14:30:20.876Z,14.85
2022-09-16T14:32:51.626Z,14.81
2022-09-16T14:35:24.967Z,14.75
2022-09-16T14:37:59.107Z,14.67
2022-09-16T14:40:30.092Z,14.65
2022-09-16T14:43:03.337Z,14.64
2022-09-16T14:45:38.272Z,14.63
2022-09-16T14:48:12.030Z,14.65
2022-09-16T14:50:44.353Z,14.67
2022-09-16T14:53:35.378Z,14.71
2022-09-16T14:56:07.413Z,14.74
2022-09-16T14:58:38.949Z,14.79
2022-09-16T15:01:17.299Z,14.84
2022-09-16T15:03:52.720Z,14.87
2022-09-16T15:06:25.828Z,14.88
2022-09-16T15:09:00.615Z,14.88
2022-09-16T15:11:47.687Z,14.86
2022-09-16T15:14:18.415Z,14.84
2022-09-16T15:16:54.357Z,14.83
2022-09-16T15:19:28.512Z,14.80
2022-09-16T15:21:58.974Z,14.80
2022-09-16T15:24:31.436Z,14.81
2022-09-16T15:27:02.849Z,14.81
2022-09-16T15:29:35.452Z,14.80
2022-09-16T15:32:23.402Z,14.78
2022-09-16T15:35:14.425Z,14.75
2022-09-16T15:37:44.201Z,14.72
2022-09-16T15:40:36.672Z,14.70
2022-09-16T15:43:19.486Z,14.65
2022-09-16T15:46:01.872Z,14.63
2022-09-16T15:48:39.569Z,14.60
2022-09-16T15:51:13.113Z,14.56
2022-09-16T15:53:49.299Z,14.57
2022-09-16T15:56:29.918Z,14.55
2022-09-16T15:59:03.141Z,14.55
2022-09-16T16:01:55.345Z,14.60
2022-09-16T16:04:30.826Z,14.65
2022-09-16T16:07:02.149Z,14.70
2022-09-16T16:09:43.377Z,14.76
2022-09-16T16:12:16.358Z,14.80
2022-09-16T16:14:47.057Z,14.77
2022-09-16T16:17:19.393Z,14.75
2022-09-16T16:19:52.825Z,14.73
2022-09-16T16:22:22.859Z,14.63
2022-09-16T16:24:52.587Z,14.53
2022-09-16T16:27:22.372Z,14.49
2022-09-16T16:29:52.306Z,14.44
2022-09-16T16:32:22.134Z,14.45
2022-09-16T16:34:58.041Z,14.49
2022-09-16T16:37:45.346Z,14.48
2022-09-16T16:40:15.628Z,14.41
2022-09-16T16:42:45.789Z,14.35
2022-09-16T16:45:16.777Z,14.31
2022-09-16T16:47:46.997Z,14.23
2022-09-16T16:50:19.504Z,14.20
2022-09-16T16:52:53.914Z,14.19
2022-09-16T16:55:23.585Z,14.14
2022-09-16T16:57:53.316Z,14.11
2022-09-16T17:00:23.277Z,14.11
2022-09-16T17:02:53.015Z,14.15
2022-09-16T17:05:25.407Z,14.20
2022-09-16T17:07:55.240Z,14.23
2022-09-16T17:10:25.361Z,14.26
2022-09-16T17:12:55.077Z,14.22
2022-09-16T17:15:25.610Z,14.10
2022-09-16T17:17:55.321Z,14.01
2022-09-16T17:20:27.993Z,14.00
2022-09-16T17:22:57.725Z,13.99
2022-09-16T17:25:27.910Z,14.00
2022-09-16T17:27:58.858Z,14.01
2022-09-16T17:30:28.615Z,14.02
2022-09-16T17:32:58.297Z,14.06
2022-09-16T17:35:30.580Z,14.04
2022-09-16T17:38:04.852Z,14.04
2022-09-16T17:40:36.596Z,14.01
2022-09-16T17:43:06.633Z,14.05
2022-09-16T17:45:36.529Z,14.04
2022-09-16T17:48:06.321Z,14.09
2022-09-16T17:50:40.473Z,14.10
2022-09-16T17:53:10.193Z,14.10
2022-09-16T17:55:39.847Z,14.09
2022-09-16T17:58:09.567Z,14.10
2022-09-16T18:00:39.472Z,14.12
2022-09-16T18:03:09.476Z,14.15
2022-09-16T18:05:42.667Z,14.21
2022-09-16T18:08:12.369Z,14.23
2022-09-16T18:10:42.164Z,14.27
2022-09-16T18:13:11.924Z,14.28
2022-09-16T18:15:41.709Z,14.33
2022-09-16T18:18:15.136Z,14.38
2022-09-16T18:20:47.450Z,14.41
2022-09-16T18:23:17.177Z,14.39
2022-09-16T18:25:46.904Z,14.31
2022-09-16T18:28:16.650Z,14.17
2022-09-16T18:30:46.896Z,14.11
2022-09-16T18:33:16.905Z,14.06
2022-09-16T18:35:49.198Z,14.07
2022-09-16T18:38:18.889Z,14.09
2022-09-16T18:40:48.600Z,14.11
2022-09-16T18:43:18.290Z,14.16
2022-09-16T18:45:48.054Z,14.21
2022-09-16T18:48:17.728Z,14.27
2022-09-16T18:50:50.937Z,14.32
2022-09-16T18:53:20.602Z,14.35
2022-09-16T18:55:50.302Z,14.39
2022-09-16T18:58:20.005Z,14.41
2022-09-16T19:00:51.249Z,14.43
2022-09-16T19:03:23.161Z,14.36
2022-09-16T19:06:01.499Z,14.31
2022-09-16T19:08:31.208Z,14.23
2022-09-16T19:11:05.440Z,14.20
2022-09-16T19:13:36.089Z,14.17
2022-09-16T19:16:06.382Z,14.16
2022-09-16T19:18:36.206Z,14.14
2022-09-16T19:21:08.950Z,14.14
2022-09-16T19:23:38.674Z,14.14
2022-09-16T19:26:08.750Z,14.16
2022-09-16T19:28:39.097Z,14.17
2022-09-16T19:31:11.094Z,14.17
2022-09-16T19:33:41.891Z,14.17
2022-09-16T19:36:19.180Z,14.15
2022-09-16T19:38:50.027Z,14.07
2022-09-16T19:41:20.908Z,14.04
2022-09-16T19:43:51.166Z,14.00
2022-09-16T19:46:21.400Z,13.97
2022-09-16T19:48:52.746Z,13.98
2022-09-16T19:51:26.454Z,13.98
2022-09-16T19:53:58.492Z,14.00
2022-09-16T19:56:30.003Z,14.02
2022-09-16T19:59:01.469Z,14.02
2022-09-16T20:01:33.259Z,14.04
2022-09-16T20:04:04.044Z,14.06
2022-09-16T20:06:38.989Z,14.11
2022-09-16T20:09:11.603Z,14.13
2022-09-16T20:11:43.765Z,14.17
2022-09-16T20:14:16.972Z,14.19
2022-09-16T20:16:46.999Z,14.17
2022-09-16T20:19:18.641Z,14.13
2022-09-16T20:21:51.395Z,14.04
2022-09-16T20:24:23.183Z,13.99
2022-09-16T20:26:55.266Z,13.95
2022-09-16T20:29:24.941Z,13.95
2022-09-16T20:31:55.309Z,13.95
2022-09-16T20:34:25.140Z,13.96
2022-09-16T20:36:57.506Z,13.97
2022-09-16T20:39:27.190Z,13.98
2022-09-16T20:41:58.615Z,13.98
2022-09-16T20:44:28.304Z,14.01
2022-09-16T20:46:58.057Z,14.02
2022-09-16T20:49:28.593Z,14.04
2022-09-16T20:52:00.881Z,14.06
2022-09-16T20:54:30.589Z,14.08
2022-09-16T20:57:00.801Z,14.09
2022-09-16T20:59:31.737Z,14.12
2022-09-16T21:02:04.163Z,14.15
2022-09-16T21:04:33.947Z,14.16
2022-09-16T21:07:06.269Z,14.14
2022-09-16T21:09:35.969Z,14.11
2022-09-16T21:12:07.433Z,14.11
2022-09-16T21:14:37.253Z,14.11
2022-09-16T21:17:06.965Z,14.11
2022-09-16T21:19:36.653Z,14.10
2022-09-16T21:22:09.293Z,14.10
2022-09-16T21:24:38.990Z,14.11
2022-09-16T21:27:08.860Z,14.14
2022-09-16T21:29:38.556Z,14.17
2022-09-16T21:32:10.485Z,14.17
2022-09-16T21:34:40.252Z,14.16
2022-09-16T21:37:12.556Z,14.18
2022-09-16T21:39:42.235Z,14.16
2022-09-16T21:42:11.920Z,14.18
2022-09-16T21:44:41.642Z,14.19
2022-09-16T21:47:11.682Z,14.17
2022-09-16T21:49:41.389Z,14.18
2022-09-16T21:52:13.668Z,14.16
2022-09-16T21:54:43.344Z,14.13
2022-09-16T21:57:14.588Z,14.10
2022-09-16T21:59:44.304Z,14.07
2022-09-16T22:02:13.999Z,14.09
2022-09-16T22:04:43.722Z,14.10
2022-09-16T22:07:16.004Z,14.13
2022-09-16T22:09:45.665Z,14.13
2022-09-16T22:12:15.352Z,14.15
2022-09-16T22:14:45.029Z,14.18
2022-09-16T22:17:14.749Z,14.15
2022-09-16T22:19:44.425Z,14.17
2022-09-16T22:22:16.734Z,14.18
2022-09-16T22:24:46.380Z,14.19
2022-09-16T22:27:16.057Z,14.16
2022-09-16T22:29:45.746Z,14.14
2022-09-16T22:32:15.513Z,14.15
2022-09-16T22:34:45.228Z,14.18
2022-09-16T22:37:17.526Z,14.17
2022-09-16T22:39:47.205Z,14.15
2022-09-16T22:42:16.892Z,14.13
2022-09-16T22:44:46.568Z,14.13
2022-09-16T22:47:16.243Z,14.12
2022-09-16T22:49:45.961Z,14.10
2022-09-16T22:52:18.330Z,14.09
2022-09-16T22:54:48.034Z,14.06
2022-09-16T22:57:17.937Z,14.02
2022-09-16T22:59:47.636Z,14.04
2022-09-16T23:02:17.336Z,14.04
2022-09-16T23:04:47.041Z,14.05
2022-09-16T23:07:19.381Z,14.04
2022-09-16T23:09:49.080Z,14.02
2022-09-16T23:12:18.800Z,14.02
2022-09-16T23:14:48.529Z,14.03
2022-09-16T23:17:18.237Z,14.03
2022-09-16T23:19:47.915Z,14.03
2022-09-16T23:22:20.202Z,14.02
2022-09-16T23:24:49.904Z,14.02
2022-09-16T23:27:19.631Z,14.01
2022-09-16T23:29:49.309Z,14.03
2022-09-16T23:32:19.018Z,14.04
2022-09-16T23:34:49.417Z,14.02
2022-09-16T23:37:21.713Z,14.01
2022-09-16T23:39:51.459Z,13.98
2022-09-16T23:42:21.151Z,13.91
2022-09-16T23:44:50.828Z,13.83
2022-09-16T23:47:20.673Z,13.82
2022-09-16T23:49:50.363Z,13.78
2022-09-16T23:52:22.704Z,13.75
2022-09-16T23:54:52.393Z,13.76
2022-09-16T23:57:22.724Z,13.76
2022-09-16T23:59:52.421Z,13.75
